Alexander City, Alabama
Current Conditions -  °F | °C
As of 8:35 PM on Wednesday 17 Dec 2014 (Local Time) from KALX Reporting Station
Clear Clear  
Wind Chill:   Ceiling: Unl
Heat Index:   Visibility: 10mi
Dew Point:   Wind: 3mph
Humidity: 78%   Direction: 350°N
Pressure: 30.19"   Gusts: NA
Location:  32.94°N, 85.95°W
Report Text: KALX 180235Z AUTO 35003KT 10SM CLR 05/02 A3019 RMK AO2 T00500015
Loading
Personal Weather Stations






























Interactive Weather Map New forecast layout! Learn more

10-Day Weather Forecast

Advertisements
Track Severe Weather on mobile